sensor_id;sensor_type;location;lat;lon;timestamp;P1;durP1;ratioP1;P2;durP2;ratioP2
13660;SDS011;6903;49.480;11.102;2022-08-21T00:00:21;39.40;;;25.37;;
13660;SDS011;6903;49.480;11.102;2022-08-21T00:02:50;41.77;;;25.87;;
13660;SDS011;6903;49.480;11.102;2022-08-21T00:05:19;39.33;;;25.52;;
13660;SDS011;6903;49.480;11.102;2022-08-21T00:07:45;36.15;;;24.50;;
13660;SDS011;6903;49.480;11.102;2022-08-21T00:10:11;39.73;;;26.13;;
13660;SDS011;6903;49.480;11.102;2022-08-21T00:12:37;39.28;;;25.42;;
13660;SDS011;6903;49.480;11.102;2022-08-21T00:15:04;42.97;;;25.67;;
13660;SDS011;6903;49.480;11.102;2022-08-21T00:17:30;42.42;;;26.55;;
13660;SDS011;6903;49.480;11.102;2022-08-21T00:19:55;40.28;;;25.63;;
13660;SDS011;6903;49.480;11.102;2022-08-21T00:22:21;42.83;;;27.77;;
13660;SDS011;6903;49.480;11.102;2022-08-21T00:24:46;42.43;;;28.23;;
13660;SDS011;6903;49.480;11.102;2022-08-21T00:27:11;39.38;;;26.20;;
13660;SDS011;6903;49.480;11.102;2022-08-21T00:29:37;40.57;;;26.67;;
13660;SDS011;6903;49.480;11.102;2022-08-21T00:32:02;41.85;;;26.00;;
13660;SDS011;6903;49.480;11.102;2022-08-21T00:34:27;40.30;;;25.17;;
13660;SDS011;6903;49.480;11.102;2022-08-21T00:36:53;38.17;;;24.20;;
13660;SDS011;6903;49.480;11.102;2022-08-21T00:39:18;37.38;;;24.90;;
13660;SDS011;6903;49.480;11.102;2022-08-21T00:41:43;38.22;;;23.83;;
13660;SDS011;6903;49.480;11.102;2022-08-21T00:44:10;36.67;;;24.13;;
13660;SDS011;6903;49.480;11.102;2022-08-21T00:46:37;37.83;;;23.67;;
13660;SDS011;6903;49.480;11.102;2022-08-21T00:49:05;30.37;;;20.87;;
13660;SDS011;6903;49.480;11.102;2022-08-21T00:51:43;33.50;;;21.30;;
13660;SDS011;6903;49.480;11.102;2022-08-21T00:54:14;27.13;;;18.00;;
13660;SDS011;6903;49.480;11.102;2022-08-21T00:56:40;27.00;;;18.47;;
13660;SDS011;6903;49.480;11.102;2022-08-21T00:59:06;23.80;;;17.27;;
13660;SDS011;6903;49.480;11.102;2022-08-21T01:01:31;27.80;;;18.53;;
13660;SDS011;6903;49.480;11.102;2022-08-21T01:03:57;27.53;;;19.70;;
13660;SDS011;6903;49.480;11.102;2022-08-21T01:06:23;27.13;;;19.83;;
13660;SDS011;6903;49.480;11.102;2022-08-21T01:08:48;23.43;;;17.63;;
13660;SDS011;6903;49.480;11.102;2022-08-21T01:11:14;26.60;;;19.77;;
13660;SDS011;6903;49.480;11.102;2022-08-21T01:13:40;28.33;;;20.00;;
13660;SDS011;6903;49.480;11.102;2022-08-21T01:16:10;21.97;;;17.33;;
13660;SDS011;6903;49.480;11.102;2022-08-21T01:18:37;22.80;;;17.40;;
13660;SDS011;6903;49.480;11.102;2022-08-21T01:21:16;26.27;;;19.27;;
13660;SDS011;6903;49.480;11.102;2022-08-21T01:23:51;28.93;;;19.97;;
13660;SDS011;6903;49.480;11.102;2022-08-21T01:26:19;27.83;;;19.43;;
13660;SDS011;6903;49.480;11.102;2022-08-21T01:28:57;25.93;;;19.50;;
13660;SDS011;6903;49.480;11.102;2022-08-21T01:31:26;26.30;;;18.53;;
13660;SDS011;6903;49.480;11.102;2022-08-21T01:33:53;25.00;;;18.43;;
13660;SDS011;6903;49.480;11.102;2022-08-21T01:36:19;26.60;;;18.13;;
13660;SDS011;6903;49.480;11.102;2022-08-21T01:38:46;25.70;;;18.67;;
13660;SDS011;6903;49.480;11.102;2022-08-21T01:41:12;23.73;;;18.07;;
13660;SDS011;6903;49.480;11.102;2022-08-21T01:43:38;25.47;;;18.13;;
13660;SDS011;6903;49.480;11.102;2022-08-21T01:46:03;28.07;;;18.87;;
13660;SDS011;6903;49.480;11.102;2022-08-21T01:48:29;24.90;;;18.97;;
13660;SDS011;6903;49.480;11.102;2022-08-21T01:50:54;26.70;;;19.10;;
13660;SDS011;6903;49.480;11.102;2022-08-21T01:53:19;27.70;;;19.40;;
13660;SDS011;6903;49.480;11.102;2022-08-21T01:55:45;25.23;;;18.63;;
13660;SDS011;6903;49.480;11.102;2022-08-21T01:58:10;23.73;;;18.30;;
13660;SDS011;6903;49.480;11.102;2022-08-21T02:00:35;21.97;;;16.40;;
13660;SDS011;6903;49.480;11.102;2022-08-21T02:03:01;23.63;;;17.67;;
13660;SDS011;6903;49.480;11.102;2022-08-21T02:05:26;22.43;;;16.60;;
13660;SDS011;6903;49.480;11.102;2022-08-21T02:07:52;19.83;;;15.80;;
13660;SDS011;6903;49.480;11.102;2022-08-21T02:10:22;19.87;;;15.17;;
13660;SDS011;6903;49.480;11.102;2022-08-21T02:12:51;20.90;;;14.97;;
13660;SDS011;6903;49.480;11.102;2022-08-21T02:15:17;20.50;;;14.77;;
13660;SDS011;6903;49.480;11.102;2022-08-21T02:17:47;18.23;;;15.27;;
13660;SDS011;6903;49.480;11.102;2022-08-21T02:20:23;20.13;;;15.03;;
13660;SDS011;6903;49.480;11.102;2022-08-21T02:22:50;17.93;;;14.33;;
13660;SDS011;6903;49.480;11.102;2022-08-21T02:25:16;20.70;;;15.00;;
13660;SDS011;6903;49.480;11.102;2022-08-21T02:27:43;18.03;;;14.40;;
13660;SDS011;6903;49.480;11.102;2022-08-21T02:30:16;18.57;;;15.53;;
13660;SDS011;6903;49.480;11.102;2022-08-21T02:32:47;18.40;;;15.27;;
13660;SDS011;6903;49.480;11.102;2022-08-21T02:35:12;17.70;;;13.77;;
13660;SDS011;6903;49.480;11.102;2022-08-21T02:40:10;21.40;;;16.97;;
13660;SDS011;6903;49.480;11.102;2022-08-21T02:42:36;22.20;;;16.77;;
13660;SDS011;6903;49.480;11.102;2022-08-21T02:45:02;20.53;;;16.23;;
13660;SDS011;6903;49.480;11.102;2022-08-21T02:47:28;18.90;;;15.27;;
13660;SDS011;6903;49.480;11.102;2022-08-21T02:49:53;16.80;;;14.27;;
13660;SDS011;6903;49.480;11.102;2022-08-21T02:52:18;16.13;;;13.40;;
13660;SDS011;6903;49.480;11.102;2022-08-21T02:54:44;16.33;;;14.13;;
13660;SDS011;6903;49.480;11.102;2022-08-21T02:57:09;16.53;;;13.80;;
13660;SDS011;6903;49.480;11.102;2022-08-21T02:59:34;15.37;;;12.50;;
13660;SDS011;6903;49.480;11.102;2022-08-21T03:02:00;17.13;;;13.40;;
13660;SDS011;6903;49.480;11.102;2022-08-21T03:04:25;15.27;;;13.13;;
13660;SDS011;6903;49.480;11.102;2022-08-21T03:06:51;15.83;;;13.00;;
13660;SDS011;6903;49.480;11.102;2022-08-21T03:09:16;19.10;;;14.20;;
13660;SDS011;6903;49.480;11.102;2022-08-21T03:11:42;15.90;;;13.20;;
13660;SDS011;6903;49.480;11.102;2022-08-21T03:14:07;19.23;;;13.63;;
13660;SDS011;6903;49.480;11.102;2022-08-21T03:16:32;19.27;;;14.70;;
13660;SDS011;6903;49.480;11.102;2022-08-21T03:18:57;18.05;;;14.43;;
13660;SDS011;6903;49.480;11.102;2022-08-21T03:21:23;17.27;;;14.43;;
13660;SDS011;6903;49.480;11.102;2022-08-21T03:23:48;19.77;;;14.30;;
13660;SDS011;6903;49.480;11.102;2022-08-21T03:26:14;17.20;;;13.87;;
13660;SDS011;6903;49.480;11.102;2022-08-21T03:28:39;17.13;;;13.47;;
13660;SDS011;6903;49.480;11.102;2022-08-21T03:31:04;18.50;;;14.37;;
13660;SDS011;6903;49.480;11.102;2022-08-21T03:33:30;19.57;;;14.87;;
13660;SDS011;6903;49.480;11.102;2022-08-21T03:36:04;22.73;;;15.57;;
13660;SDS011;6903;49.480;11.102;2022-08-21T03:38:32;21.97;;;15.63;;
13660;SDS011;6903;49.480;11.102;2022-08-21T03:40:59;20.43;;;14.37;;
13660;SDS011;6903;49.480;11.102;2022-08-21T03:43:26;19.17;;;14.47;;
13660;SDS011;6903;49.480;11.102;2022-08-21T03:45:51;18.43;;;13.80;;
13660;SDS011;6903;49.480;11.102;2022-08-21T03:48:17;19.57;;;14.80;;
13660;SDS011;6903;49.480;11.102;2022-08-21T03:50:43;17.03;;;14.10;;
13660;SDS011;6903;49.480;11.102;2022-08-21T03:53:10;20.83;;;14.80;;
13660;SDS011;6903;49.480;11.102;2022-08-21T03:55:36;17.87;;;14.00;;
13660;SDS011;6903;49.480;11.102;2022-08-21T03:58:02;17.83;;;13.67;;
13660;SDS011;6903;49.480;11.102;2022-08-21T04:00:28;15.17;;;13.30;;
13660;SDS011;6903;49.480;11.102;2022-08-21T04:02:54;16.43;;;13.80;;
13660;SDS011;6903;49.480;11.102;2022-08-21T04:05:19;20.30;;;14.70;;
13660;SDS011;6903;49.480;11.102;2022-08-21T04:07:58;20.80;;;16.73;;
13660;SDS011;6903;49.480;11.102;2022-08-21T04:10:29;23.83;;;19.20;;
13660;SDS011;6903;49.480;11.102;2022-08-21T04:12:56;23.77;;;18.00;;
13660;SDS011;6903;49.480;11.102;2022-08-21T04:15:22;20.70;;;15.57;;
13660;SDS011;6903;49.480;11.102;2022-08-21T04:17:48;19.23;;;14.37;;
13660;SDS011;6903;49.480;11.102;2022-08-21T04:20:15;19.20;;;14.33;;
13660;SDS011;6903;49.480;11.102;2022-08-21T04:22:41;19.03;;;14.23;;
13660;SDS011;6903;49.480;11.102;2022-08-21T04:25:07;18.43;;;13.60;;
13660;SDS011;6903;49.480;11.102;2022-08-21T04:27:33;18.10;;;14.30;;
13660;SDS011;6903;49.480;11.102;2022-08-21T04:29:59;26.50;;;17.17;;
13660;SDS011;6903;49.480;11.102;2022-08-21T04:32:25;47.97;;;20.57;;
13660;SDS011;6903;49.480;11.102;2022-08-21T04:34:58;62.30;;;22.03;;
13660;SDS011;6903;49.480;11.102;2022-08-21T04:37:27;21.27;;;14.27;;
13660;SDS011;6903;49.480;11.102;2022-08-21T04:39:52;23.57;;;15.87;;
13660;SDS011;6903;49.480;11.102;2022-08-21T04:42:18;27.83;;;16.40;;
13660;SDS011;6903;49.480;11.102;2022-08-21T04:44:43;24.87;;;15.03;;
13660;SDS011;6903;49.480;11.102;2022-08-21T04:47:09;27.97;;;17.13;;
13660;SDS011;6903;49.480;11.102;2022-08-21T04:49:34;29.67;;;17.37;;
13660;SDS011;6903;49.480;11.102;2022-08-21T04:52:00;26.20;;;14.93;;
13660;SDS011;6903;49.480;11.102;2022-08-21T04:54:25;26.20;;;15.50;;
13660;SDS011;6903;49.480;11.102;2022-08-21T04:56:52;39.90;;;16.90;;
13660;SDS011;6903;49.480;11.102;2022-08-21T04:59:25;37.20;;;19.37;;
13660;SDS011;6903;49.480;11.102;2022-08-21T05:01:56;58.23;;;20.87;;
13660;SDS011;6903;49.480;11.102;2022-08-21T05:04:23;69.57;;;19.83;;
13660;SDS011;6903;49.480;11.102;2022-08-21T05:06:50;53.35;;;17.90;;
13660;SDS011;6903;49.480;11.102;2022-08-21T05:09:18;63.73;;;20.43;;
13660;SDS011;6903;49.480;11.102;2022-08-21T05:11:45;41.70;;;16.92;;
13660;SDS011;6903;49.480;11.102;2022-08-21T05:14:11;155.25;;;25.08;;
13660;SDS011;6903;49.480;11.102;2022-08-21T05:16:37;165.90;;;24.03;;
13660;SDS011;6903;49.480;11.102;2022-08-21T05:19:02;97.72;;;17.60;;
13660;SDS011;6903;49.480;11.102;2022-08-21T05:21:28;71.88;;;18.10;;
13660;SDS011;6903;49.480;11.102;2022-08-21T05:23:54;195.20;;;25.25;;
13660;SDS011;6903;49.480;11.102;2022-08-21T05:26:19;254.17;;;29.83;;
13660;SDS011;6903;49.480;11.102;2022-08-21T05:28:44;69.63;;;16.90;;
13660;SDS011;6903;49.480;11.102;2022-08-21T05:31:10;117.78;;;21.23;;
13660;SDS011;6903;49.480;11.102;2022-08-21T05:33:35;233.40;;;27.90;;
13660;SDS011;6903;49.480;11.102;2022-08-21T05:36:00;79.78;;;19.17;;
13660;SDS011;6903;49.480;11.102;2022-08-21T05:38:26;59.53;;;18.88;;
13660;SDS011;6903;49.480;11.102;2022-08-21T05:40:53;99.22;;;19.25;;
13660;SDS011;6903;49.480;11.102;2022-08-21T05:43:19;76.53;;;18.37;;
13660;SDS011;6903;49.480;11.102;2022-08-21T05:45:44;63.47;;;17.48;;
13660;SDS011;6903;49.480;11.102;2022-08-21T05:48:14;54.88;;;19.48;;
13660;SDS011;6903;49.480;11.102;2022-08-21T05:50:42;109.28;;;22.42;;
13660;SDS011;6903;49.480;11.102;2022-08-21T05:53:09;139.18;;;24.33;;
13660;SDS011;6903;49.480;11.102;2022-08-21T05:55:36;93.47;;;18.85;;
13660;SDS011;6903;49.480;11.102;2022-08-21T05:58:03;309.67;;;27.17;;
13660;SDS011;6903;49.480;11.102;2022-08-21T06:00:29;149.23;;;18.65;;
13660;SDS011;6903;49.480;11.102;2022-08-21T06:02:54;94.68;;;15.90;;
13660;SDS011;6903;49.480;11.102;2022-08-21T06:05:19;125.55;;;16.80;;
13660;SDS011;6903;49.480;11.102;2022-08-21T06:07:45;663.35;;;54.28;;
13660;SDS011;6903;49.480;11.102;2022-08-21T06:10:10;729.15;;;67.38;;
13660;SDS011;6903;49.480;11.102;2022-08-21T06:12:36;362.00;;;30.77;;
13660;SDS011;6903;49.480;11.102;2022-08-21T06:15:01;136.70;;;16.60;;
13660;SDS011;6903;49.480;11.102;2022-08-21T06:17:26;94.43;;;15.05;;
13660;SDS011;6903;49.480;11.102;2022-08-21T06:19:52;366.55;;;34.97;;
13660;SDS011;6903;49.480;11.102;2022-08-21T06:22:19;93.20;;;15.43;;
13660;SDS011;6903;49.480;11.102;2022-08-21T06:24:44;211.45;;;24.45;;
13660;SDS011;6903;49.480;11.102;2022-08-21T06:27:10;40.45;;;14.32;;
13660;SDS011;6903;49.480;11.102;2022-08-21T06:29:35;38.88;;;13.93;;
13660;SDS011;6903;49.480;11.102;2022-08-21T06:32:01;229.95;;;29.00;;
13660;SDS011;6903;49.480;11.102;2022-08-21T06:34:27;48.58;;;14.43;;
13660;SDS011;6903;49.480;11.102;2022-08-21T06:36:53;62.92;;;13.70;;
13660;SDS011;6903;49.480;11.102;2022-08-21T06:39:18;95.97;;;17.42;;
13660;SDS011;6903;49.480;11.102;2022-08-21T06:41:44;119.38;;;19.58;;
13660;SDS011;6903;49.480;11.102;2022-08-21T06:44:10;40.53;;;11.70;;
13660;SDS011;6903;49.480;11.102;2022-08-21T06:46:35;137.27;;;20.23;;
13660;SDS011;6903;49.480;11.102;2022-08-21T06:49:01;26.65;;;12.10;;
13660;SDS011;6903;49.480;11.102;2022-08-21T06:51:27;48.28;;;14.93;;
13660;SDS011;6903;49.480;11.102;2022-08-21T06:53:53;42.42;;;13.35;;
13660;SDS011;6903;49.480;11.102;2022-08-21T06:56:19;141.43;;;19.95;;
13660;SDS011;6903;49.480;11.102;2022-08-21T06:58:44;45.60;;;13.00;;
13660;SDS011;6903;49.480;11.102;2022-08-21T07:01:10;24.85;;;13.20;;
13660;SDS011;6903;49.480;11.102;2022-08-21T07:03:37;28.10;;;11.15;;
13660;SDS011;6903;49.480;11.102;2022-08-21T07:06:05;17.88;;;12.82;;
13660;SDS011;6903;49.480;11.102;2022-08-21T07:08:31;19.25;;;11.73;;
13660;SDS011;6903;49.480;11.102;2022-08-21T07:10:59;21.48;;;13.02;;
13660;SDS011;6903;49.480;11.102;2022-08-21T07:13:25;21.08;;;11.52;;
13660;SDS011;6903;49.480;11.102;2022-08-21T07:15:51;18.92;;;11.77;;
13660;SDS011;6903;49.480;11.102;2022-08-21T07:18:17;18.25;;;11.25;;
13660;SDS011;6903;49.480;11.102;2022-08-21T07:20:42;16.05;;;12.35;;
13660;SDS011;6903;49.480;11.102;2022-08-21T07:23:09;20.15;;;13.85;;
13660;SDS011;6903;49.480;11.102;2022-08-21T07:25:36;15.65;;;13.85;;
13660;SDS011;6903;49.480;11.102;2022-08-21T07:28:02;14.30;;;12.65;;
13660;SDS011;6903;49.480;11.102;2022-08-21T07:30:27;15.80;;;13.65;;
13660;SDS011;6903;49.480;11.102;2022-08-21T07:32:53;17.30;;;13.18;;
13660;SDS011;6903;49.480;11.102;2022-08-21T07:35:19;17.58;;;15.77;;
13660;SDS011;6903;49.480;11.102;2022-08-21T07:37:45;17.77;;;14.13;;
13660;SDS011;6903;49.480;11.102;2022-08-21T07:40:10;16.30;;;14.55;;
13660;SDS011;6903;49.480;11.102;2022-08-21T07:42:43;19.52;;;15.57;;
13660;SDS011;6903;49.480;11.102;2022-08-21T07:45:11;15.77;;;14.15;;
13660;SDS011;6903;49.480;11.102;2022-08-21T07:47:37;12.70;;;11.40;;
13660;SDS011;6903;49.480;11.102;2022-08-21T07:50:03;13.30;;;11.90;;
13660;SDS011;6903;49.480;11.102;2022-08-21T07:52:30;14.02;;;12.63;;
13660;SDS011;6903;49.480;11.102;2022-08-21T07:54:55;15.65;;;14.15;;
13660;SDS011;6903;49.480;11.102;2022-08-21T07:57:20;13.98;;;12.68;;
13660;SDS011;6903;49.480;11.102;2022-08-21T07:59:46;14.15;;;12.75;;
13660;SDS011;6903;49.480;11.102;2022-08-21T08:02:21;16.00;;;14.25;;
13660;SDS011;6903;49.480;11.102;2022-08-21T08:04:47;14.10;;;12.80;;
13660;SDS011;6903;49.480;11.102;2022-08-21T08:07:12;14.65;;;12.73;;
13660;SDS011;6903;49.480;11.102;2022-08-21T08:09:38;13.68;;;12.40;;
13660;SDS011;6903;49.480;11.102;2022-08-21T08:12:03;14.10;;;12.80;;
13660;SDS011;6903;49.480;11.102;2022-08-21T08:14:29;10.80;;;9.75;;
13660;SDS011;6903;49.480;11.102;2022-08-21T08:16:54;13.45;;;12.20;;
13660;SDS011;6903;49.480;11.102;2022-08-21T08:19:19;11.02;;;10.02;;
13660;SDS011;6903;49.480;11.102;2022-08-21T08:21:44;13.68;;;12.38;;
13660;SDS011;6903;49.480;11.102;2022-08-21T08:24:10;13.82;;;12.52;;
13660;SDS011;6903;49.480;11.102;2022-08-21T08:26:35;14.65;;;13.27;;
13660;SDS011;6903;49.480;11.102;2022-08-21T08:29:00;14.93;;;13.43;;
13660;SDS011;6903;49.480;11.102;2022-08-21T08:31:26;15.30;;;13.80;;
13660;SDS011;6903;49.480;11.102;2022-08-21T08:33:52;14.38;;;12.98;;
13660;SDS011;6903;49.480;11.102;2022-08-21T08:36:17;14.75;;;13.35;;
13660;SDS011;6903;49.480;11.102;2022-08-21T08:38:44;14.35;;;13.02;;
13660;SDS011;6903;49.480;11.102;2022-08-21T08:41:14;14.88;;;13.48;;
13660;SDS011;6903;49.480;11.102;2022-08-21T08:43:54;13.02;;;11.82;;
13660;SDS011;6903;49.480;11.102;2022-08-21T08:46:35;14.82;;;13.35;;
13660;SDS011;6903;49.480;11.102;2022-08-21T08:49:13;14.82;;;13.43;;
13660;SDS011;6903;49.480;11.102;2022-08-21T08:51:50;14.38;;;13.15;;
13660;SDS011;6903;49.480;11.102;2022-08-21T08:54:42;15.90;;;14.48;;
13660;SDS011;6903;49.480;11.102;2022-08-21T08:57:14;15.75;;;14.35;;
13660;SDS011;6903;49.480;11.102;2022-08-21T08:59:47;15.57;;;14.07;;
13660;SDS011;6903;49.480;11.102;2022-08-21T09:02:16;16.45;;;14.85;;
13660;SDS011;6903;49.480;11.102;2022-08-21T09:04:43;13.93;;;12.70;;
13660;SDS011;6903;49.480;11.102;2022-08-21T09:07:32;15.95;;;14.55;;
13660;SDS011;6903;49.480;11.102;2022-08-21T09:10:10;17.73;;;16.13;;
13660;SDS011;6903;49.480;11.102;2022-08-21T09:15:32;16.33;;;14.82;;
13660;SDS011;6903;49.480;11.102;2022-08-21T09:18:17;15.82;;;14.32;;
13660;SDS011;6903;49.480;11.102;2022-08-21T09:23:31;10.60;;;9.63;;
13660;SDS011;6903;49.480;11.102;2022-08-21T09:26:04;16.42;;;15.02;;
13660;SDS011;6903;49.480;11.102;2022-08-21T09:28:33;14.52;;;13.23;;
13660;SDS011;6903;49.480;11.102;2022-08-21T09:31:00;14.43;;;13.13;;
13660;SDS011;6903;49.480;11.102;2022-08-21T09:33:47;14.50;;;13.20;;
13660;SDS011;6903;49.480;11.102;2022-08-21T09:36:12;13.70;;;12.40;;
13660;SDS011;6903;49.480;11.102;2022-08-21T09:38:54;14.70;;;13.35;;
13660;SDS011;6903;49.480;11.102;2022-08-21T09:41:25;14.50;;;13.27;;
13660;SDS011;6903;49.480;11.102;2022-08-21T09:43:53;14.38;;;13.07;;
13660;SDS011;6903;49.480;11.102;2022-08-21T09:46:23;15.48;;;14.15;;
13660;SDS011;6903;49.480;11.102;2022-08-21T09:48:51;14.45;;;13.15;;
13660;SDS011;6903;49.480;11.102;2022-08-21T09:54:14;15.45;;;14.05;;
13660;SDS011;6903;49.480;11.102;2022-08-21T09:56:54;13.20;;;11.93;;
13660;SDS011;6903;49.480;11.102;2022-08-21T09:59:39;13.07;;;11.85;;
13660;SDS011;6903;49.480;11.102;2022-08-21T10:02:25;10.52;;;9.63;;
13660;SDS011;6903;49.480;11.102;2022-08-21T10:04:58;10.07;;;9.23;;
13660;SDS011;6903;49.480;11.102;2022-08-21T10:07:53;13.95;;;12.75;;
13660;SDS011;6903;49.480;11.102;2022-08-21T10:10:23;10.32;;;9.43;;
13660;SDS011;6903;49.480;11.102;2022-08-21T10:13:03;12.43;;;11.38;;
13660;SDS011;6903;49.480;11.102;2022-08-21T10:18:35;13.63;;;12.52;;
13660;SDS011;6903;49.480;11.102;2022-08-21T10:26:20;12.65;;;11.55;;
13660;SDS011;6903;49.480;11.102;2022-08-21T10:31:34;13.43;;;12.32;;
13660;SDS011;6903;49.480;11.102;2022-08-21T10:37:01;9.80;;;9.00;;
13660;SDS011;6903;49.480;11.102;2022-08-21T10:40:18;11.73;;;10.48;;
13660;SDS011;6903;49.480;11.102;2022-08-21T10:42:55;11.32;;;10.32;;
13660;SDS011;6903;49.480;11.102;2022-08-21T10:48:25;10.63;;;9.73;;
13660;SDS011;6903;49.480;11.102;2022-08-21T10:54:11;10.10;;;9.20;;
13660;SDS011;6903;49.480;11.102;2022-08-21T10:56:42;9.73;;;8.93;;
13660;SDS011;6903;49.480;11.102;2022-08-21T10:59:25;10.18;;;9.23;;
13660;SDS011;6903;49.480;11.102;2022-08-21T11:02:13;8.07;;;7.38;;
13660;SDS011;6903;49.480;11.102;2022-08-21T11:04:51;9.82;;;8.93;;
13660;SDS011;6903;49.480;11.102;2022-08-21T11:10:39;8.00;;;7.30;;
13660;SDS011;6903;49.480;11.102;2022-08-21T11:13:07;7.65;;;6.90;;
13660;SDS011;6903;49.480;11.102;2022-08-21T11:18:24;7.00;;;6.40;;
13660;SDS011;6903;49.480;11.102;2022-08-21T11:21:14;6.70;;;6.10;;
13660;SDS011;6903;49.480;11.102;2022-08-21T11:29:36;7.70;;;7.10;;
13660;SDS011;6903;49.480;11.102;2022-08-21T11:37:50;5.85;;;5.35;;
13660;SDS011;6903;49.480;11.102;2022-08-21T11:43:54;4.90;;;4.50;;
13660;SDS011;6903;49.480;11.102;2022-08-21T11:57:20;5.32;;;4.93;;
13660;SDS011;6903;49.480;11.102;2022-08-21T11:59:53;4.75;;;4.35;;
13660;SDS011;6903;49.480;11.102;2022-08-21T12:02:21;4.70;;;4.30;;
13660;SDS011;6903;49.480;11.102;2022-08-21T12:04:53;4.32;;;3.97;;
13660;SDS011;6903;49.480;11.102;2022-08-21T12:07:31;4.32;;;3.92;;
13660;SDS011;6903;49.480;11.102;2022-08-21T12:10:08;4.95;;;4.53;;
13660;SDS011;6903;49.480;11.102;2022-08-21T12:12:40;5.18;;;4.78;;
13660;SDS011;6903;49.480;11.102;2022-08-21T12:17:39;5.00;;;4.60;;
13660;SDS011;6903;49.480;11.102;2022-08-21T12:22:49;5.03;;;4.63;;
13660;SDS011;6903;49.480;11.102;2022-08-21T12:25:19;4.78;;;4.38;;
13660;SDS011;6903;49.480;11.102;2022-08-21T12:27:49;5.45;;;4.95;;
13660;SDS011;6903;49.480;11.102;2022-08-21T12:30:19;4.68;;;4.38;;
13660;SDS011;6903;49.480;11.102;2022-08-21T12:32:55;5.35;;;4.90;;
13660;SDS011;6903;49.480;11.102;2022-08-21T12:35:32;5.00;;;4.60;;
13660;SDS011;6903;49.480;11.102;2022-08-21T12:40:55;5.13;;;4.80;;
13660;SDS011;6903;49.480;11.102;2022-08-21T12:43:35;4.13;;;3.83;;
13660;SDS011;6903;49.480;11.102;2022-08-21T12:46:05;4.57;;;3.60;;
13660;SDS011;6903;49.480;11.102;2022-08-21T12:51:17;4.82;;;3.92;;
13660;SDS011;6903;49.480;11.102;2022-08-21T12:53:51;3.85;;;3.55;;
13660;SDS011;6903;49.480;11.102;2022-08-21T12:56:19;3.63;;;3.33;;
13660;SDS011;6903;49.480;11.102;2022-08-21T12:58:56;3.40;;;3.10;;
13660;SDS011;6903;49.480;11.102;2022-08-21T13:01:48;4.18;;;3.78;;
13660;SDS011;6903;49.480;11.102;2022-08-21T13:04:17;3.50;;;3.22;;
13660;SDS011;6903;49.480;11.102;2022-08-21T13:06:47;3.95;;;3.65;;
13660;SDS011;6903;49.480;11.102;2022-08-21T13:09:18;3.17;;;2.97;;
13660;SDS011;6903;49.480;11.102;2022-08-21T13:11:48;3.10;;;2.90;;
13660;SDS011;6903;49.480;11.102;2022-08-21T13:14:26;3.20;;;2.90;;
13660;SDS011;6903;49.480;11.102;2022-08-21T13:16:55;2.88;;;2.67;;
13660;SDS011;6903;49.480;11.102;2022-08-21T13:19:23;3.78;;;3.47;;
13660;SDS011;6903;49.480;11.102;2022-08-21T13:21:50;3.72;;;3.47;;
13660;SDS011;6903;49.480;11.102;2022-08-21T13:24:28;3.65;;;3.35;;
13660;SDS011;6903;49.480;11.102;2022-08-21T13:26:56;3.67;;;3.38;;
13660;SDS011;6903;49.480;11.102;2022-08-21T13:29:23;3.53;;;3.20;;
13660;SDS011;6903;49.480;11.102;2022-08-21T13:31:55;3.58;;;3.38;;
13660;SDS011;6903;49.480;11.102;2022-08-21T13:34:24;4.68;;;3.42;;
13660;SDS011;6903;49.480;11.102;2022-08-21T13:36:56;4.03;;;3.63;;
13660;SDS011;6903;49.480;11.102;2022-08-21T13:39:23;4.72;;;3.80;;
13660;SDS011;6903;49.480;11.102;2022-08-21T13:41:50;4.07;;;3.67;;
13660;SDS011;6903;49.480;11.102;2022-08-21T13:44:23;3.40;;;3.10;;
13660;SDS011;6903;49.480;11.102;2022-08-21T13:46:57;3.75;;;3.45;;
13660;SDS011;6903;49.480;11.102;2022-08-21T13:49:35;3.50;;;3.20;;
13660;SDS011;6903;49.480;11.102;2022-08-21T13:52:03;3.90;;;3.60;;
13660;SDS011;6903;49.480;11.102;2022-08-21T13:54:39;3.67;;;3.38;;
13660;SDS011;6903;49.480;11.102;2022-08-21T13:57:19;3.80;;;3.50;;
13660;SDS011;6903;49.480;11.102;2022-08-21T13:59:49;3.85;;;3.55;;
13660;SDS011;6903;49.480;11.102;2022-08-21T14:02:18;3.40;;;3.10;;
13660;SDS011;6903;49.480;11.102;2022-08-21T14:04:51;4.38;;;3.50;;
13660;SDS011;6903;49.480;11.102;2022-08-21T14:07:24;3.58;;;3.28;;
13660;SDS011;6903;49.480;11.102;2022-08-21T14:09:52;3.65;;;3.30;;
13660;SDS011;6903;49.480;11.102;2022-08-21T14:12:22;3.15;;;2.85;;
13660;SDS011;6903;49.480;11.102;2022-08-21T14:14:53;3.45;;;3.15;;
13660;SDS011;6903;49.480;11.102;2022-08-21T14:17:27;3.58;;;3.30;;
13660;SDS011;6903;49.480;11.102;2022-08-21T14:19:55;3.67;;;3.40;;
13660;SDS011;6903;49.480;11.102;2022-08-21T14:22:41;3.78;;;3.47;;
13660;SDS011;6903;49.480;11.102;2022-08-21T14:30:30;4.20;;;3.80;;
13660;SDS011;6903;49.480;11.102;2022-08-21T14:32:59;8.27;;;7.57;;
13660;SDS011;6903;49.480;11.102;2022-08-21T14:35:25;14.23;;;12.10;;
13660;SDS011;6903;49.480;11.102;2022-08-21T14:37:51;4.75;;;4.35;;
13660;SDS011;6903;49.480;11.102;2022-08-21T14:40:17;8.60;;;7.82;;
13660;SDS011;6903;49.480;11.102;2022-08-21T14:42:44;5.18;;;4.63;;
13660;SDS011;6903;49.480;11.102;2022-08-21T14:45:14;4.32;;;3.88;;
13660;SDS011;6903;49.480;11.102;2022-08-21T14:47:42;4.10;;;3.80;;
13660;SDS011;6903;49.480;11.102;2022-08-21T14:50:08;4.40;;;4.03;;
13660;SDS011;6903;49.480;11.102;2022-08-21T14:52:33;4.28;;;3.90;;
13660;SDS011;6903;49.480;11.102;2022-08-21T14:54:59;6.30;;;5.80;;
13660;SDS011;6903;49.480;11.102;2022-08-21T14:57:29;3.38;;;3.08;;
13660;SDS011;6903;49.480;11.102;2022-08-21T14:59:55;3.70;;;3.40;;
13660;SDS011;6903;49.480;11.102;2022-08-21T15:02:21;3.53;;;3.22;;
13660;SDS011;6903;49.480;11.102;2022-08-21T15:04:46;3.88;;;3.58;;
13660;SDS011;6903;49.480;11.102;2022-08-21T15:07:12;5.95;;;5.40;;
13660;SDS011;6903;49.480;11.102;2022-08-21T15:09:37;6.75;;;6.05;;
13660;SDS011;6903;49.480;11.102;2022-08-21T15:12:02;5.55;;;5.03;;
13660;SDS011;6903;49.480;11.102;2022-08-21T15:14:30;5.55;;;5.10;;
13660;SDS011;6903;49.480;11.102;2022-08-21T15:16:58;6.30;;;5.70;;
13660;SDS011;6903;49.480;11.102;2022-08-21T15:19:24;5.55;;;5.05;;
13660;SDS011;6903;49.480;11.102;2022-08-21T15:21:49;4.18;;;3.80;;
13660;SDS011;6903;49.480;11.102;2022-08-21T15:24:15;5.32;;;3.72;;
13660;SDS011;6903;49.480;11.102;2022-08-21T15:26:40;5.78;;;5.28;;
13660;SDS011;6903;49.480;11.102;2022-08-21T15:29:07;5.03;;;3.67;;
13660;SDS011;6903;49.480;11.102;2022-08-21T15:31:33;3.17;;;2.97;;
13660;SDS011;6903;49.480;11.102;2022-08-21T15:34:00;5.65;;;5.15;;
13660;SDS011;6903;49.480;11.102;2022-08-21T15:36:26;3.92;;;3.63;;
13660;SDS011;6903;49.480;11.102;2022-08-21T15:38:51;3.78;;;3.05;;
13660;SDS011;6903;49.480;11.102;2022-08-21T15:41:16;5.18;;;4.70;;
13660;SDS011;6903;49.480;11.102;2022-08-21T15:43:50;4.78;;;4.38;;
13660;SDS011;6903;49.480;11.102;2022-08-21T15:46:18;3.47;;;3.17;;
13660;SDS011;6903;49.480;11.102;2022-08-21T15:48:45;3.38;;;3.08;;
13660;SDS011;6903;49.480;11.102;2022-08-21T15:51:13;4.28;;;3.15;;
13660;SDS011;6903;49.480;11.102;2022-08-21T15:53:40;3.92;;;3.63;;
13660;SDS011;6903;49.480;11.102;2022-08-21T15:56:11;4.05;;;3.33;;